TimeEDT,TemperatureF,Dew PointF,Humidity,Sea Level PressureIn,VisibilityMPH,Wind Direction,Wind SpeedMPH,Gust SpeedMPH,PrecipitationIn,Events,Conditions,WindDirDegrees,DateUTC
12:56 AM,57.9,48.9,72,29.83,10.0,Calm,Calm,-,N/A,,Clear,0,2013-03-17 04:56:00
1:56 AM,57.9,48.9,72,29.85,10.0,SSW,3.5,-,N/A,,Clear,210,2013-03-17 05:56:00
2:56 AM,55.9,48.9,77,29.86,10.0,Calm,Calm,-,N/A,,Clear,0,2013-03-17 06:56:00
3:56 AM,54.0,48.0,80,29.87,10.0,Calm,Calm,-,N/A,,Clear,0,2013-03-17 07:56:00
4:56 AM,54.0,48.9,83,29.88,10.0,Calm,Calm,-,N/A,,Clear,0,2013-03-17 08:56:00
5:56 AM,55.0,48.9,80,29.91,10.0,NE,10.4,-,N/A,,Clear,50,2013-03-17 09:56:00
6:30 AM,53.1,50.0,89,29.94,10.0,NE,8.1,-,N/A,,Scattered Clouds,40,2013-03-17 10:30:00
6:38 AM,53.1,50.0,89,29.95,10.0,NE,9.2,-,N/A,,Mostly Cloudy,50,2013-03-17 10:38:00
6:56 AM,53.1,50.0,89,29.95,7.0,ENE,10.4,-,N/A,,Overcast,60,2013-03-17 10:56:00
7:13 AM,53.1,50.0,89,29.96,5.0,NE,6.9,-,N/A,,Overcast,40,2013-03-17 11:13:00
7:46 AM,53.1,51.1,93,29.96,2.5,ENE,8.1,-,N/A,,Overcast,60,2013-03-17 11:46:00
7:56 AM,53.1,51.1,93,29.95,2.0,NE,11.5,-,N/A,,Overcast,50,2013-03-17 11:56:00
8:19 AM,52.0,50.0,93,29.96,3.0,NE,8.1,-,N/A,,Overcast,50,2013-03-17 12:19:00
8:56 AM,52.0,48.0,86,29.98,5.0,NE,10.4,-,N/A,,Overcast,40,2013-03-17 12:56:00
9:56 AM,50.0,46.0,86,30.02,5.0,NNE,11.5,-,N/A,,Overcast,30,2013-03-17 13:56:00
10:47 AM,51.1,44.1,77,30.04,8.0,NE,11.5,-,N/A,,Overcast,40,2013-03-17 14:47:00
10:56 AM,52.0,44.1,74,30.03,8.0,NE,11.5,-,N/A,,Overcast,50,2013-03-17 14:56:00
11:15 AM,53.1,44.1,71,30.04,9.0,NE,11.5,21.9,N/A,,Overcast,50,2013-03-17 15:15:00
11:56 AM,55.0,43.0,64,30.04,10.0,NE,11.5,17.3,N/A,,Overcast,40,2013-03-17 15:56:00
12:56 PM,55.0,41.0,59,30.05,10.0,NE,12.7,-,N/A,,Overcast,50,2013-03-17 16:56:00
1:56 PM,51.1,39.9,66,30.05,10.0,NE,12.7,-,N/A,,Overcast,50,2013-03-17 17:56:00
2:56 PM,51.1,39.0,63,30.04,10.0,NE,10.4,-,N/A,,Overcast,50,2013-03-17 18:56:00
3:56 PM,50.0,39.0,66,30.04,10.0,NE,10.4,-,N/A,,Overcast,40,2013-03-17 19:56:00
4:56 PM,48.0,37.0,66,30.05,10.0,NNE,9.2,-,N/A,,Overcast,30,2013-03-17 20:56:00
5:56 PM,46.9,36.0,66,30.06,10.0,NE,10.4,19.6,N/A,,Overcast,50,2013-03-17 21:56:00
6:56 PM,45.0,36.0,71,30.09,10.0,NE,12.7,-,N/A,,Overcast,40,2013-03-17 22:56:00
7:56 PM,44.1,36.0,73,30.10,10.0,ENE,10.4,23.0,N/A,,Overcast,60,2013-03-17 23:56:00
8:56 PM,44.1,36.0,73,30.13,10.0,ENE,10.4,-,N/A,,Overcast,60,2013-03-18 00:56:00
9:56 PM,43.0,36.0,76,30.17,10.0,NE,11.5,-,N/A,,Overcast,50,2013-03-18 01:56:00
10:20 PM,42.1,36.0,79,30.17,9.0,NE,11.5,-,N/A,,Overcast,40,2013-03-18 02:20:00
10:56 PM,41.0,37.0,86,30.17,3.0,ENE,9.2,-,N/A,,Overcast,60,2013-03-18 02:56:00
11:23 PM,41.0,37.0,86,30.17,3.0,ENE,10.4,-,N/A,,Overcast,60,2013-03-18 03:23:00
11:35 PM,39.9,37.0,89,30.17,2.5,NE,11.5,-,N/A,,Overcast,50,2013-03-18 03:35:00
11:56 PM,39.9,37.0,89,30.18,2.0,NE,10.4,-,N/A,,Overcast,50,2013-03-18 03:56:00